sensor_id;sensor_type;location;lat;lon;timestamp;pressure;altitude;pressure_sealevel;temperature;humidity
28628;BME280;15815;46.760;19.604;2023-04-06T00:01:26;100494.75;;;0.71;59.49
28628;BME280;15815;46.760;19.604;2023-04-06T00:03:55;100457.03;;;0.37;59.07
28628;BME280;15815;46.760;19.604;2023-04-06T00:06:21;100469.19;;;0.45;59.71
28628;BME280;15815;46.760;19.604;2023-04-06T00:08:46;100453.16;;;0.29;58.96
28628;BME280;15815;46.760;19.604;2023-04-06T00:11:12;100478.63;;;0.44;59.09
28628;BME280;15815;46.760;19.604;2023-04-06T00:13:38;100454.78;;;0.30;59.23
28628;BME280;15815;46.760;19.604;2023-04-06T00:16:05;100475.38;;;0.42;59.85
28628;BME280;15815;46.760;19.604;2023-04-06T00:18:31;100446.66;;;0.25;60.20
28628;BME280;15815;46.760;19.604;2023-04-06T00:20:58;100455.19;;;0.12;60.53
28628;BME280;15815;46.760;19.604;2023-04-06T00:23:26;100453.22;;;0.12;60.90
28628;BME280;15815;46.760;19.604;2023-04-06T00:25:52;100476.91;;;0.30;60.85
28628;BME280;15815;46.760;19.604;2023-04-06T00:28:17;100446.28;;;-0.03;61.55
28628;BME280;15815;46.760;19.604;2023-04-06T00:30:43;100457.81;;;-0.01;61.30
28628;BME280;15815;46.760;19.604;2023-04-06T00:33:12;100422.28;;;-0.19;61.47
28628;BME280;15815;46.760;19.604;2023-04-06T00:35:37;100450.50;;;-0.05;61.26
28628;BME280;15815;46.760;19.604;2023-04-06T00:38:03;100434.31;;;-0.15;61.93
28628;BME280;15815;46.760;19.604;2023-04-06T00:40:29;100455.88;;;0.00;61.92
28628;BME280;15815;46.760;19.604;2023-04-06T00:42:55;100454.94;;;-0.13;62.59
28628;BME280;15815;46.760;19.604;2023-04-06T00:45:22;100447.34;;;-0.24;61.96
28628;BME280;15815;46.760;19.604;2023-04-06T00:47:48;100466.75;;;-0.04;62.27
28628;BME280;15815;46.760;19.604;2023-04-06T00:50:14;100437.44;;;-0.25;62.14
28628;BME280;15815;46.760;19.604;2023-04-06T00:52:40;100422.47;;;-0.33;61.90
28628;BME280;15815;46.760;19.604;2023-04-06T00:55:06;100429.16;;;-0.25;62.17
28628;BME280;15815;46.760;19.604;2023-04-06T00:57:31;100405.75;;;-0.37;62.04
28628;BME280;15815;46.760;19.604;2023-04-06T00:59:57;100436.44;;;-0.29;62.39
28628;BME280;15815;46.760;19.604;2023-04-06T01:02:23;100453.00;;;-0.29;61.81
28628;BME280;15815;46.760;19.604;2023-04-06T01:04:53;100428.38;;;-0.43;61.37
28628;BME280;15815;46.760;19.604;2023-04-06T01:07:21;100415.69;;;-0.44;61.29
28628;BME280;15815;46.760;19.604;2023-04-06T01:09:47;100447.78;;;-0.14;60.69
28628;BME280;15815;46.760;19.604;2023-04-06T01:12:15;100424.75;;;-0.26;60.68
28628;BME280;15815;46.760;19.604;2023-04-06T01:14:40;100428.00;;;-0.24;59.79
28628;BME280;15815;46.760;19.604;2023-04-06T01:17:07;100414.19;;;-0.24;59.56
28628;BME280;15815;46.760;19.604;2023-04-06T01:19:32;100416.28;;;-0.21;59.38
28628;BME280;15815;46.760;19.604;2023-04-06T01:21:58;100426.97;;;-0.11;59.23
28628;BME280;15815;46.760;19.604;2023-04-06T01:24:24;100422.63;;;-0.21;59.63
28628;BME280;15815;46.760;19.604;2023-04-06T01:26:50;100424.06;;;-0.15;59.10
28628;BME280;15815;46.760;19.604;2023-04-06T01:29:16;100402.16;;;-0.28;58.99
28628;BME280;15815;46.760;19.604;2023-04-06T01:31:42;100448.72;;;-0.01;59.09
28628;BME280;15815;46.760;19.604;2023-04-06T01:34:07;100425.38;;;-0.21;59.14
28628;BME280;15815;46.760;19.604;2023-04-06T01:36:33;100413.38;;;-0.25;59.33
28628;BME280;15815;46.760;19.604;2023-04-06T01:38:59;100426.19;;;-0.20;59.56
28628;BME280;15815;46.760;19.604;2023-04-06T01:41:25;100412.25;;;-0.33;59.96
28628;BME280;15815;46.760;19.604;2023-04-06T01:43:51;100416.16;;;-0.25;59.95
28628;BME280;15815;46.760;19.604;2023-04-06T01:46:16;100408.34;;;-0.32;59.67
28628;BME280;15815;46.760;19.604;2023-04-06T01:48:42;100413.19;;;-0.28;59.26
28628;BME280;15815;46.760;19.604;2023-04-06T01:51:08;100420.84;;;-0.25;59.53
28628;BME280;15815;46.760;19.604;2023-04-06T01:53:33;100385.50;;;-0.49;59.40
28628;BME280;15815;46.760;19.604;2023-04-06T01:56:03;100425.38;;;-0.29;60.30
28628;BME280;15815;46.760;19.604;2023-04-06T01:58:29;100396.03;;;-0.43;59.77
28628;BME280;15815;46.760;19.604;2023-04-06T02:00:54;100382.41;;;-0.56;59.93
28628;BME280;15815;46.760;19.604;2023-04-06T02:03:20;100399.63;;;-0.51;60.13
28628;BME280;15815;46.760;19.604;2023-04-06T02:05:46;100433.69;;;-0.29;60.28
28628;BME280;15815;46.760;19.604;2023-04-06T02:08:11;100396.06;;;-0.51;60.14
28628;BME280;15815;46.760;19.604;2023-04-06T02:10:39;100410.69;;;-0.51;59.56
28628;BME280;15815;46.760;19.604;2023-04-06T02:13:05;100423.47;;;-0.38;60.03
28628;BME280;15815;46.760;19.604;2023-04-06T02:15:30;100420.75;;;-0.46;61.10
28628;BME280;15815;46.760;19.604;2023-04-06T02:17:57;100389.13;;;-0.75;61.15
28628;BME280;15815;46.760;19.604;2023-04-06T02:20:22;100407.47;;;-0.70;60.96
28628;BME280;15815;46.760;19.604;2023-04-06T02:22:49;100389.59;;;-0.73;61.44
28628;BME280;15815;46.760;19.604;2023-04-06T02:25:14;100423.00;;;-0.57;61.52
28628;BME280;15815;46.760;19.604;2023-04-06T02:27:40;100401.78;;;-0.82;62.15
28628;BME280;15815;46.760;19.604;2023-04-06T02:30:06;100394.50;;;-0.78;61.51
28628;BME280;15815;46.760;19.604;2023-04-06T02:32:33;100409.25;;;-0.74;61.80
28628;BME280;15815;46.760;19.604;2023-04-06T02:34:59;100423.72;;;-0.77;62.26
28628;BME280;15815;46.760;19.604;2023-04-06T02:37:24;100399.34;;;-0.93;61.72
28628;BME280;15815;46.760;19.604;2023-04-06T02:39:50;100410.88;;;-0.90;61.61
28628;BME280;15815;46.760;19.604;2023-04-06T02:42:16;100388.31;;;-1.10;62.41
28628;BME280;15815;46.760;19.604;2023-04-06T02:44:42;100417.84;;;-0.84;62.60
28628;BME280;15815;46.760;19.604;2023-04-06T02:47:11;100415.09;;;-0.93;62.64
28628;BME280;15815;46.760;19.604;2023-04-06T02:49:36;100386.88;;;-1.07;62.33
28628;BME280;15815;46.760;19.604;2023-04-06T02:52:02;100401.31;;;-1.02;62.12
28628;BME280;15815;46.760;19.604;2023-04-06T02:54:30;100382.81;;;-1.18;62.09
28628;BME280;15815;46.760;19.604;2023-04-06T02:56:56;100386.22;;;-1.21;62.12
28628;BME280;15815;46.760;19.604;2023-04-06T02:59:21;100407.66;;;-1.01;61.74
28628;BME280;15815;46.760;19.604;2023-04-06T03:01:47;100378.28;;;-1.23;62.40
28628;BME280;15815;46.760;19.604;2023-04-06T03:04:15;100381.34;;;-1.16;62.79
28628;BME280;15815;46.760;19.604;2023-04-06T03:06:41;100378.91;;;-1.26;63.25
28628;BME280;15815;46.760;19.604;2023-04-06T03:09:07;100357.19;;;-1.36;62.78
28628;BME280;15815;46.760;19.604;2023-04-06T03:11:33;100374.69;;;-1.23;63.35
28628;BME280;15815;46.760;19.604;2023-04-06T03:13:59;100357.50;;;-1.29;63.68
28628;BME280;15815;46.760;19.604;2023-04-06T03:16:34;100368.22;;;-1.36;63.87
28628;BME280;15815;46.760;19.604;2023-04-06T03:18:59;100375.53;;;-1.32;63.83
28628;BME280;15815;46.760;19.604;2023-04-06T03:21:25;100381.34;;;-1.33;63.35
28628;BME280;15815;46.760;19.604;2023-04-06T03:23:50;100405.53;;;-1.13;64.63
28628;BME280;15815;46.760;19.604;2023-04-06T03:26:19;100426.31;;;-1.07;64.45
28628;BME280;15815;46.760;19.604;2023-04-06T03:28:45;100407.13;;;-1.12;64.45
28628;BME280;15815;46.760;19.604;2023-04-06T03:31:11;100381.19;;;-1.28;65.13
28628;BME280;15815;46.760;19.604;2023-04-06T03:33:37;100419.34;;;-1.04;64.96
28628;BME280;15815;46.760;19.604;2023-04-06T03:36:03;100392.06;;;-1.23;65.18
28628;BME280;15815;46.760;19.604;2023-04-06T03:38:29;100374.34;;;-1.39;65.40
28628;BME280;15815;46.760;19.604;2023-04-06T03:40:54;100399.03;;;-1.34;65.02
28628;BME280;15815;46.760;19.604;2023-04-06T03:43:20;100388.00;;;-1.34;65.12
28628;BME280;15815;46.760;19.604;2023-04-06T03:45:46;100398.69;;;-1.41;64.79
28628;BME280;15815;46.760;19.604;2023-04-06T03:48:15;100436.19;;;-1.23;64.59
28628;BME280;15815;46.760;19.604;2023-04-06T03:50:41;100403.72;;;-1.43;65.15
28628;BME280;15815;46.760;19.604;2023-04-06T03:53:06;100430.16;;;-1.42;64.33
28628;BME280;15815;46.760;19.604;2023-04-06T03:55:34;100410.94;;;-1.73;65.17
28628;BME280;15815;46.760;19.604;2023-04-06T03:58:00;100395.53;;;-1.74;64.62
28628;BME280;15815;46.760;19.604;2023-04-06T04:00:26;100409.84;;;-1.64;65.03
28628;BME280;15815;46.760;19.604;2023-04-06T04:02:52;100429.31;;;-1.51;64.80
28628;BME280;15815;46.760;19.604;2023-04-06T04:05:17;100392.28;;;-1.76;64.61
28628;BME280;15815;46.760;19.604;2023-04-06T04:07:43;100432.56;;;-1.58;64.24
28628;BME280;15815;46.760;19.604;2023-04-06T04:10:09;100413.53;;;-1.77;65.41
28628;BME280;15815;46.760;19.604;2023-04-06T04:12:34;100409.31;;;-1.74;65.03
28628;BME280;15815;46.760;19.604;2023-04-06T04:15:03;100392.13;;;-1.80;65.25
28628;BME280;15815;46.760;19.604;2023-04-06T04:17:29;100388.88;;;-1.82;65.16
28628;BME280;15815;46.760;19.604;2023-04-06T04:19:54;100417.25;;;-1.73;65.22
28628;BME280;15815;46.760;19.604;2023-04-06T04:22:20;100441.47;;;-1.52;64.89
28628;BME280;15815;46.760;19.604;2023-04-06T04:24:45;100421.84;;;-1.60;65.58
28628;BME280;15815;46.760;19.604;2023-04-06T04:27:11;100409.81;;;-1.72;65.47
28628;BME280;15815;46.760;19.604;2023-04-06T04:29:43;100412.94;;;-1.57;65.45
28628;BME280;15815;46.760;19.604;2023-04-06T04:32:08;100420.06;;;-1.56;65.18
28628;BME280;15815;46.760;19.604;2023-04-06T04:34:34;100442.34;;;-1.35;65.22
28628;BME280;15815;46.760;19.604;2023-04-06T04:37:00;100416.03;;;-1.58;65.04
28628;BME280;15815;46.760;19.604;2023-04-06T04:39:25;100402.72;;;-1.47;65.13
28628;BME280;15815;46.760;19.604;2023-04-06T04:41:51;100442.84;;;-1.24;64.44
28628;BME280;15815;46.760;19.604;2023-04-06T04:44:17;100410.69;;;-1.37;64.78
28628;BME280;15815;46.760;19.604;2023-04-06T04:46:43;100419.81;;;-1.28;64.72
28628;BME280;15815;46.760;19.604;2023-04-06T04:49:09;100422.75;;;-1.07;64.57
28628;BME280;15815;46.760;19.604;2023-04-06T04:51:38;100403.75;;;-1.09;64.18
28628;BME280;15815;46.760;19.604;2023-04-06T04:54:04;100416.41;;;-1.08;65.09
28628;BME280;15815;46.760;19.604;2023-04-06T04:56:30;100406.19;;;-0.99;64.99
28628;BME280;15815;46.760;19.604;2023-04-06T04:58:56;100407.97;;;-0.77;64.41
28628;BME280;15815;46.760;19.604;2023-04-06T05:01:23;100399.97;;;-0.61;63.80
28628;BME280;15815;46.760;19.604;2023-04-06T05:03:48;100424.44;;;-0.34;63.70
28628;BME280;15815;46.760;19.604;2023-04-06T05:06:16;100421.53;;;-0.37;63.82
28628;BME280;15815;46.760;19.604;2023-04-06T05:08:42;100438.50;;;-0.09;64.32
28628;BME280;15815;46.760;19.604;2023-04-06T05:11:09;100421.78;;;-0.13;64.18
28628;BME280;15815;46.760;19.604;2023-04-06T05:13:35;100408.59;;;-0.07;63.92
28628;BME280;15815;46.760;19.604;2023-04-06T05:16:00;100406.72;;;0.14;63.85
28628;BME280;15815;46.760;19.604;2023-04-06T05:18:26;100405.34;;;0.29;63.45
28628;BME280;15815;46.760;19.604;2023-04-06T05:20:51;100435.97;;;0.74;63.15
28628;BME280;15815;46.760;19.604;2023-04-06T05:23:17;100407.97;;;0.76;63.31
28628;BME280;15815;46.760;19.604;2023-04-06T05:25:42;100434.59;;;1.10;63.13
28628;BME280;15815;46.760;19.604;2023-04-06T05:28:08;100401.09;;;1.03;63.89
28628;BME280;15815;46.760;19.604;2023-04-06T05:30:34;100411.22;;;1.19;63.22
28628;BME280;15815;46.760;19.604;2023-04-06T05:33:01;100391.06;;;1.31;63.95
28628;BME280;15815;46.760;19.604;2023-04-06T05:35:26;100435.72;;;1.63;63.68
28628;BME280;15815;46.760;19.604;2023-04-06T05:37:52;100397.66;;;1.72;64.23
28628;BME280;15815;46.760;19.604;2023-04-06T05:40:17;100409.94;;;2.07;63.54
28628;BME280;15815;46.760;19.604;2023-04-06T05:42:43;100411.34;;;2.13;63.32
28628;BME280;15815;46.760;19.604;2023-04-06T05:45:09;100384.41;;;2.14;63.23
28628;BME280;15815;46.760;19.604;2023-04-06T05:47:36;100402.56;;;2.48;64.03
28628;BME280;15815;46.760;19.604;2023-04-06T05:50:01;100398.84;;;2.68;63.83
28628;BME280;15815;46.760;19.604;2023-04-06T05:52:27;100405.50;;;2.92;63.27
28628;BME280;15815;46.760;19.604;2023-04-06T05:54:53;100393.50;;;3.16;63.84
28628;BME280;15815;46.760;19.604;2023-04-06T05:57:19;100398.63;;;3.41;63.43
28628;BME280;15815;46.760;19.604;2023-04-06T05:59:45;100406.44;;;3.52;63.88
28628;BME280;15815;46.760;19.604;2023-04-06T06:02:13;100407.13;;;3.77;63.90
28628;BME280;15815;46.760;19.604;2023-04-06T06:04:39;100379.75;;;3.63;63.23
28628;BME280;15815;46.760;19.604;2023-04-06T06:07:04;100377.88;;;3.83;64.20
28628;BME280;15815;46.760;19.604;2023-04-06T06:09:30;100401.66;;;4.27;65.03
28628;BME280;15815;46.760;19.604;2023-04-06T06:11:55;100407.75;;;4.49;63.91
28628;BME280;15815;46.760;19.604;2023-04-06T06:14:23;100389.69;;;4.58;62.73
28628;BME280;15815;46.760;19.604;2023-04-06T06:16:48;100387.84;;;4.82;63.99
28628;BME280;15815;46.760;19.604;2023-04-06T06:19:15;100394.16;;;4.98;63.34
28628;BME280;15815;46.760;19.604;2023-04-06T06:21:40;100406.69;;;5.46;65.35
28628;BME280;15815;46.760;19.604;2023-04-06T06:24:07;100400.00;;;5.89;64.80
28628;BME280;15815;46.760;19.604;2023-04-06T06:26:32;100387.97;;;5.66;63.89
28628;BME280;15815;46.760;19.604;2023-04-06T06:28:58;100402.69;;;6.05;65.54
28628;BME280;15815;46.760;19.604;2023-04-06T06:31:23;100371.81;;;6.44;66.05
28628;BME280;15815;46.760;19.604;2023-04-06T06:33:49;100366.19;;;6.67;64.20
28628;BME280;15815;46.760;19.604;2023-04-06T06:36:14;100368.66;;;7.02;63.15
28628;BME280;15815;46.760;19.604;2023-04-06T06:38:40;100381.59;;;7.13;62.25
28628;BME280;15815;46.760;19.604;2023-04-06T06:41:05;100374.44;;;7.16;63.77
28628;BME280;15815;46.760;19.604;2023-04-06T06:43:31;100376.25;;;7.68;62.92
28628;BME280;15815;46.760;19.604;2023-04-06T06:46:00;100381.19;;;7.86;61.24
28628;BME280;15815;46.760;19.604;2023-04-06T06:48:25;100357.88;;;8.15;62.55
28628;BME280;15815;46.760;19.604;2023-04-06T06:50:55;100386.41;;;8.79;61.51
28628;BME280;15815;46.760;19.604;2023-04-06T06:53:21;100371.38;;;9.09;63.53
28628;BME280;15815;46.760;19.604;2023-04-06T06:55:47;100368.97;;;9.07;53.64
28628;BME280;15815;46.760;19.604;2023-04-06T06:58:13;100382.34;;;9.49;63.27
28628;BME280;15815;46.760;19.604;2023-04-06T07:00:38;100386.06;;;10.00;62.78
28628;BME280;15815;46.760;19.604;2023-04-06T07:03:05;100370.88;;;10.40;61.95
28628;BME280;15815;46.760;19.604;2023-04-06T07:05:31;100377.72;;;10.46;65.62
28628;BME280;15815;46.760;19.604;2023-04-06T07:07:56;100367.25;;;10.57;66.09
28628;BME280;15815;46.760;19.604;2023-04-06T07:10:23;100379.69;;;10.74;56.55
28628;BME280;15815;46.760;19.604;2023-04-06T07:12:48;100363.41;;;11.38;65.71
28628;BME280;15815;46.760;19.604;2023-04-06T07:15:14;100371.16;;;11.93;66.51
28628;BME280;15815;46.760;19.604;2023-04-06T07:17:40;100363.88;;;11.99;65.12
28628;BME280;15815;46.760;19.604;2023-04-06T07:20:05;100347.16;;;12.71;68.48
28628;BME280;15815;46.760;19.604;2023-04-06T07:22:31;100370.41;;;13.23;65.43
28628;BME280;15815;46.760;19.604;2023-04-06T07:24:57;100355.13;;;13.51;63.56
28628;BME280;15815;46.760;19.604;2023-04-06T07:27:22;100344.44;;;13.66;65.04
28628;BME280;15815;46.760;19.604;2023-04-06T07:29:48;100356.41;;;13.77;64.32
28628;BME280;15815;46.760;19.604;2023-04-06T07:32:13;100350.81;;;14.24;66.23
28628;BME280;15815;46.760;19.604;2023-04-06T07:34:39;100356.56;;;14.67;64.70
28628;BME280;15815;46.760;19.604;2023-04-06T07:37:04;100359.69;;;15.16;59.72
28628;BME280;15815;46.760;19.604;2023-04-06T07:39:30;100359.75;;;15.32;63.10
28628;BME280;15815;46.760;19.604;2023-04-06T07:41:56;100339.22;;;15.68;59.95
28628;BME280;15815;46.760;19.604;2023-04-06T07:44:21;100355.09;;;15.02;43.86
28628;BME280;15815;46.760;19.604;2023-04-06T07:46:47;100371.22;;;15.25;54.27
28628;BME280;15815;46.760;19.604;2023-04-06T07:49:12;100365.44;;;15.12;44.47
28628;BME280;15815;46.760;19.604;2023-04-06T07:51:39;100361.06;;;15.08;52.93
28628;BME280;15815;46.760;19.604;2023-04-06T07:54:04;100370.59;;;14.74;43.05
28628;BME280;15815;46.760;19.604;2023-04-06T07:56:30;100347.78;;;14.62;54.35
28628;BME280;15815;46.760;19.604;2023-04-06T07:58:56;100369.50;;;14.68;42.85
28628;BME280;15815;46.760;19.604;2023-04-06T08:01:22;100361.41;;;14.90;51.23
28628;BME280;15815;46.760;19.604;2023-04-06T08:03:47;100369.69;;;15.01;47.27
28628;BME280;15815;46.760;19.604;2023-04-06T08:06:13;100340.63;;;14.77;48.35
28628;BME280;15815;46.760;19.604;2023-04-06T08:08:38;100323.47;;;15.07;52.48
28628;BME280;15815;46.760;19.604;2023-04-06T08:11:04;100368.75;;;14.64;43.07
28628;BME280;15815;46.760;19.604;2023-04-06T08:13:30;100339.22;;;15.08;52.35
28628;BME280;15815;46.760;19.604;2023-04-06T08:15:55;100362.31;;;15.27;50.14
28628;BME280;15815;46.760;19.604;2023-04-06T08:18:21;100336.91;;;15.23;46.33
28628;BME280;15815;46.760;19.604;2023-04-06T08:20:46;100328.22;;;15.50;48.65
28628;BME280;15815;46.760;19.604;2023-04-06T08:23:14;100344.97;;;15.81;49.13
28628;BME280;15815;46.760;19.604;2023-04-06T08:25:40;100328.34;;;15.83;49.90
28628;BME280;15815;46.760;19.604;2023-04-06T08:28:06;100349.09;;;15.96;46.91
28628;BME280;15815;46.760;19.604;2023-04-06T08:30:33;100339.72;;;16.48;48.17
28628;BME280;15815;46.760;19.604;2023-04-06T08:32:58;100320.75;;;16.28;48.84
28628;BME280;15815;46.760;19.604;2023-04-06T08:35:24;100314.47;;;16.21;45.99
28628;BME280;15815;46.760;19.604;2023-04-06T08:37:52;100335.88;;;16.87;42.92
28628;BME280;15815;46.760;19.604;2023-04-06T08:40:17;100335.63;;;16.49;42.00
28628;BME280;15815;46.760;19.604;2023-04-06T08:42:50;100336.00;;;16.51;37.93
28628;BME280;15815;46.760;19.604;2023-04-06T08:45:18;100312.91;;;16.81;41.81
28628;BME280;15815;46.760;19.604;2023-04-06T08:47:44;100312.88;;;17.52;39.30
28628;BME280;15815;46.760;19.604;2023-04-06T08:50:10;100319.41;;;18.16;40.90
28628;BME280;15815;46.760;19.604;2023-04-06T08:52:36;100324.00;;;18.73;43.97
28628;BME280;15815;46.760;19.604;2023-04-06T08:55:03;100323.63;;;18.11;40.26
28628;BME280;15815;46.760;19.604;2023-04-06T08:57:31;100311.31;;;18.40;40.16
28628;BME280;15815;46.760;19.604;2023-04-06T08:59:57;100300.53;;;18.09;42.04
28628;BME280;15815;46.760;19.604;2023-04-06T09:02:27;100312.88;;;17.52;34.94
28628;BME280;15815;46.760;19.604;2023-04-06T09:04:53;100292.97;;;16.97;35.21
28628;BME280;15815;46.760;19.604;2023-04-06T09:07:19;100289.97;;;17.17;37.29
28628;BME280;15815;46.760;19.604;2023-04-06T09:09:45;100282.66;;;17.58;38.15
28628;BME280;15815;46.760;19.604;2023-04-06T09:12:22;100314.41;;;17.95;35.88
28628;BME280;15815;46.760;19.604;2023-04-06T09:14:47;100291.66;;;17.56;40.55
28628;BME280;15815;46.760;19.604;2023-04-06T09:17:21;100282.50;;;16.94;33.38
28628;BME280;15815;46.760;19.604;2023-04-06T09:19:48;100272.75;;;16.66;35.04
28628;BME280;15815;46.760;19.604;2023-04-06T09:22:15;100278.44;;;16.66;37.41
28628;BME280;15815;46.760;19.604;2023-04-06T09:24:45;100287.16;;;16.88;36.45
28628;BME280;15815;46.760;19.604;2023-04-06T09:27:14;100288.97;;;16.66;33.97
28628;BME280;15815;46.760;19.604;2023-04-06T09:29:41;100280.84;;;16.35;37.67
28628;BME280;15815;46.760;19.604;2023-04-06T09:32:12;100283.97;;;16.25;32.07
28628;BME280;15815;46.760;19.604;2023-04-06T09:34:39;100298.94;;;16.09;29.91
28628;BME280;15815;46.760;19.604;2023-04-06T09:37:18;100277.16;;;15.90;31.82
28628;BME280;15815;46.760;19.604;2023-04-06T09:39:44;100252.00;;;16.24;36.51
28628;BME280;15815;46.760;19.604;2023-04-06T09:42:23;100267.75;;;16.09;32.13
28628;BME280;15815;46.760;19.604;2023-04-06T09:44:49;100259.69;;;15.75;32.53
28628;BME280;15815;46.760;19.604;2023-04-06T09:47:18;100260.50;;;15.75;33.64
28628;BME280;15815;46.760;19.604;2023-04-06T09:49:47;100260.25;;;16.19;34.66
28628;BME280;15815;46.760;19.604;2023-04-06T09:52:16;100276.75;;;16.53;36.22
28628;BME280;15815;46.760;19.604;2023-04-06T09:54:44;100262.81;;;16.58;33.00
28628;BME280;15815;46.760;19.604;2023-04-06T09:57:16;100256.94;;;16.82;35.26
28628;BME280;15815;46.760;19.604;2023-04-06T10:02:25;100258.09;;;17.51;34.69
28628;BME280;15815;46.760;19.604;2023-04-06T10:07:54;100269.91;;;17.50;32.44
28628;BME280;15815;46.760;19.604;2023-04-06T10:10:21;100262.81;;;17.16;33.22
28628;BME280;15815;46.760;19.604;2023-04-06T10:12:48;100245.59;;;17.36;35.16
28628;BME280;15815;46.760;19.604;2023-04-06T10:15:14;100232.72;;;17.19;33.02
28628;BME280;15815;46.760;19.604;2023-04-06T10:17:39;100244.56;;;16.88;33.60
28628;BME280;15815;46.760;19.604;2023-04-06T10:21:09;100264.69;;;17.48;31.94
28628;BME280;15815;46.760;19.604;2023-04-06T10:23:09;100253.22;;;16.97;31.08
28628;BME280;15815;46.760;19.604;2023-04-06T10:25:36;100239.22;;;16.90;31.06
28628;BME280;15815;46.760;19.604;2023-04-06T10:28:08;100229.91;;;16.61;30.80
28628;BME280;15815;46.760;19.604;2023-04-06T10:30:35;100234.25;;;16.94;31.17
28628;BME280;15815;46.760;19.604;2023-04-06T10:33:17;100219.16;;;16.97;30.21
28628;BME280;15815;46.760;19.604;2023-04-06T10:35:43;100236.47;;;17.16;33.78
28628;BME280;15815;46.760;19.604;2023-04-06T10:38:08;100232.41;;;17.29;31.68
28628;BME280;15815;46.760;19.604;2023-04-06T10:40:38;100238.31;;;17.48;29.74
28628;BME280;15815;46.760;19.604;2023-04-06T10:43:21;100228.34;;;17.69;30.08
28628;BME280;15815;46.760;19.604;2023-04-06T10:45:57;100234.81;;;17.56;29.70
28628;BME280;15815;46.760;19.604;2023-04-06T10:48:23;100233.41;;;17.48;30.73
28628;BME280;15815;46.760;19.604;2023-04-06T10:50:52;100225.47;;;17.43;30.07
28628;BME280;15815;46.760;19.604;2023-04-06T10:53:25;100193.78;;;17.32;28.13
28628;BME280;15815;46.760;19.604;2023-04-06T10:55:57;100221.94;;;17.39;28.18
28628;BME280;15815;46.760;19.604;2023-04-06T10:58:27;100208.34;;;16.92;29.62
28628;BME280;15815;46.760;19.604;2023-04-06T11:00:53;100218.22;;;17.68;30.35
28628;BME280;15815;46.760;19.604;2023-04-06T11:03:19;100225.13;;;17.92;28.05
28628;BME280;15815;46.760;19.604;2023-04-06T11:05:49;100196.78;;;18.14;30.15
28628;BME280;15815;46.760;19.604;2023-04-06T11:08:26;100212.97;;;17.66;25.68
28628;BME280;15815;46.760;19.604;2023-04-06T11:10:51;100206.94;;;17.77;28.33
28628;BME280;15815;46.760;19.604;2023-04-06T11:13:17;100214.81;;;17.85;27.56
28628;BME280;15815;46.760;19.604;2023-04-06T11:15:43;100190.00;;;17.86;27.65
28628;BME280;15815;46.760;19.604;2023-04-06T11:18:08;100195.56;;;17.89;27.54
28628;BME280;15815;46.760;19.604;2023-04-06T11:20:34;100195.94;;;17.53;27.80
28628;BME280;15815;46.760;19.604;2023-04-06T11:22:59;100190.59;;;17.68;27.00
28628;BME280;15815;46.760;19.604;2023-04-06T11:25:25;100177.38;;;17.87;28.62
28628;BME280;15815;46.760;19.604;2023-04-06T11:27:51;100166.69;;;17.78;28.40
28628;BME280;15815;46.760;19.604;2023-04-06T11:30:17;100170.13;;;17.60;28.68
28628;BME280;15815;46.760;19.604;2023-04-06T11:32:45;100167.28;;;17.22;28.32
28628;BME280;15815;46.760;19.604;2023-04-06T11:35:21;100202.94;;;17.11;26.33
28628;BME280;15815;46.760;19.604;2023-04-06T11:37:51;100160.56;;;17.04;28.18
28628;BME280;15815;46.760;19.604;2023-04-06T11:40:21;100183.53;;;17.09;28.37
28628;BME280;15815;46.760;19.604;2023-04-06T11:42:54;100201.56;;;17.03;26.85
28628;BME280;15815;46.760;19.604;2023-04-06T11:45:20;100192.91;;;16.64;28.99
28628;BME280;15815;46.760;19.604;2023-04-06T11:47:55;100160.91;;;16.64;27.85
28628;BME280;15815;46.760;19.604;2023-04-06T11:50:21;100168.19;;;16.65;28.91
28628;BME280;15815;46.760;19.604;2023-04-06T11:52:59;100184.63;;;15.67;27.16
28628;BME280;15815;46.760;19.604;2023-04-06T11:55:25;100165.38;;;15.42;27.52
28628;BME280;15815;46.760;19.604;2023-04-06T11:57:51;100164.91;;;15.43;28.68
28628;BME280;15815;46.760;19.604;2023-04-06T12:00:23;100141.44;;;15.27;26.90
28628;BME280;15815;46.760;19.604;2023-04-06T12:02:49;100161.09;;;15.50;28.90
28628;BME280;15815;46.760;19.604;2023-04-06T12:05:14;100152.72;;;14.94;28.20
28628;BME280;15815;46.760;19.604;2023-04-06T12:07:40;100151.38;;;14.63;28.48
28628;BME280;15815;46.760;19.604;2023-04-06T12:10:09;100136.19;;;14.73;30.10
28628;BME280;15815;46.760;19.604;2023-04-06T12:12:34;100144.53;;;14.40;28.83
28628;BME280;15815;46.760;19.604;2023-04-06T12:15:01;100151.91;;;14.58;29.92
28628;BME280;15815;46.760;19.604;2023-04-06T12:17:27;100151.78;;;14.41;29.53
28628;BME280;15815;46.760;19.604;2023-04-06T12:19:52;100142.72;;;14.30;30.16
28628;BME280;15815;46.760;19.604;2023-04-06T12:22:18;100143.00;;;14.16;30.06
28628;BME280;15815;46.760;19.604;2023-04-06T12:24:44;100149.28;;;14.04;30.15
28628;BME280;15815;46.760;19.604;2023-04-06T12:27:09;100137.31;;;13.96;29.89
28628;BME280;15815;46.760;19.604;2023-04-06T12:29:35;100137.50;;;14.09;29.51
28628;BME280;15815;46.760;19.604;2023-04-06T12:32:00;100135.41;;;13.89;28.93
28628;BME280;15815;46.760;19.604;2023-04-06T12:34:26;100131.63;;;14.00;30.14
28628;BME280;15815;46.760;19.604;2023-04-06T12:36:51;100139.72;;;13.98;29.81
28628;BME280;15815;46.760;19.604;2023-04-06T12:39:18;100135.22;;;13.30;29.77
28628;BME280;15815;46.760;19.604;2023-04-06T12:41:44;100142.56;;;13.51;29.82
28628;BME280;15815;46.760;19.604;2023-04-06T12:44:10;100147.50;;;13.70;29.99
28628;BME280;15815;46.760;19.604;2023-04-06T12:46:35;100126.72;;;13.57;29.80